createdAt,value
2019-05-02T00:00:15.501Z,49.70
2019-05-02T00:05:33.186Z,49.80
2019-05-02T00:10:49.825Z,49.80
2019-05-02T00:16:09.206Z,49.80
2019-05-02T00:21:23.245Z,49.90
2019-05-02T00:26:38.969Z,50.00
2019-05-02T00:31:54.464Z,50.10
2019-05-02T00:37:10.628Z,50.00
2019-05-02T00:42:26.416Z,50.20
2019-05-02T00:47:58.384Z,50.20
2019-05-02T00:53:13.771Z,50.10
2019-05-02T00:58:31.982Z,50.20
2019-05-02T01:03:52.155Z,50.30
2019-05-02T01:09:10.902Z,50.30
2019-05-02T01:14:27.202Z,50.30
2019-05-02T01:19:41.893Z,50.40
2019-05-02T01:24:57.751Z,50.40
2019-05-02T01:30:27.868Z,50.30
2019-05-02T01:35:53.202Z,50.40
2019-05-02T01:41:09.082Z,50.50
2019-05-02T01:46:25.149Z,50.60
2019-05-02T01:51:41.988Z,50.60
2019-05-02T01:56:58.129Z,50.70
2019-05-02T02:02:14.032Z,50.90
2019-05-02T02:07:29.588Z,50.80
2019-05-02T02:13:02.766Z,50.80
2019-05-02T02:18:03.390Z,50.80
2019-05-02T02:23:28.897Z,51.00
2019-05-02T02:28:44.970Z,51.00
2019-05-02T02:34:00.791Z,51.00
2019-05-02T02:39:17.264Z,50.90
2019-05-02T02:44:50.576Z,51.00
2019-05-02T02:50:07.190Z,51.10
2019-05-02T02:55:24.533Z,51.10
2019-05-02T03:00:41.466Z,51.20
2019-05-02T03:06:04.559Z,51.20
2019-05-02T03:11:23.826Z,51.20
2019-05-02T03:16:45.592Z,51.30
2019-05-02T03:22:01.222Z,51.30
2019-05-02T03:27:13.206Z,51.40
2019-05-02T03:32:34.571Z,51.40
2019-05-02T03:37:51.335Z,51.50
2019-05-02T03:43:06.286Z,51.60
2019-05-02T03:48:25.323Z,51.60
2019-05-02T03:53:40.466Z,51.70
2019-05-02T03:58:58.190Z,51.70
2019-05-02T04:04:14.192Z,51.80
2019-05-02T04:09:42.364Z,51.90
2019-05-02T04:14:55.902Z,51.80
2019-05-02T04:20:12.758Z,51.90
2019-05-02T04:25:34.030Z,52.00
2019-05-02T04:30:51.324Z,52.00
2019-05-02T04:36:13.461Z,52.10
2019-05-02T04:41:28.570Z,52.30
2019-05-02T04:46:39.752Z,52.40
2019-05-02T04:52:04.564Z,52.40
2019-05-02T04:57:13.225Z,52.50
2019-05-02T05:02:35.900Z,52.60
2019-05-02T05:07:49.417Z,52.70
2019-05-02T05:13:12.079Z,52.70
2019-05-02T05:18:27.383Z,52.80
2019-05-02T05:24:15.300Z,52.90
2019-05-02T05:29:31.231Z,53.10
2019-05-02T05:34:47.840Z,53.20
2019-05-02T05:40:04.154Z,53.20
2019-05-02T05:45:19.734Z,53.40
2019-05-02T05:50:37.704Z,53.60
2019-05-02T05:55:58.137Z,53.70
2019-05-02T06:01:10.670Z,53.80
2019-05-02T06:06:27.394Z,54.00
2019-05-02T06:11:43.482Z,54.10
2019-05-02T06:16:59.122Z,54.40
2019-05-02T06:22:16.516Z,54.60
2019-05-02T06:27:32.361Z,54.70
2019-05-02T06:32:50.020Z,54.90
2019-05-02T06:38:05.576Z,55.10
2019-05-02T06:43:21.205Z,55.20
2019-05-02T06:48:36.600Z,55.50
2019-05-02T06:53:52.281Z,55.70
2019-05-02T06:59:07.985Z,55.90
2019-05-02T07:04:25.022Z,56.10
2019-05-02T07:09:42.454Z,56.30
2019-05-02T07:15:01.567Z,56.60
2019-05-02T07:20:16.207Z,56.80
2019-05-02T07:25:32.034Z,56.90
2019-05-02T07:30:47.923Z,57.20
2019-05-02T07:36:03.680Z,57.40
2019-05-02T07:41:19.363Z,57.50
2019-05-02T07:46:35.781Z,57.70
2019-05-02T07:51:52.451Z,57.80
2019-05-02T07:57:09.237Z,58.10
2019-05-02T08:02:26.300Z,58.30
2019-05-02T08:07:42.381Z,58.50
2019-05-02T08:12:58.297Z,59.30
2019-05-02T08:18:14.031Z,58.80
2019-05-02T08:23:29.844Z,58.90
2019-05-02T08:28:51.850Z,59.10
2019-05-02T08:34:14.742Z,59.30
2019-05-02T08:39:33.104Z,59.30
2019-05-02T08:44:50.890Z,59.60
2019-05-02T08:50:00.972Z,59.80
2019-05-02T08:55:16.887Z,59.60
2019-05-02T09:00:37.632Z,59.70
2019-05-02T09:05:50.287Z,59.70
2019-05-02T09:11:06.014Z,60.00
2019-05-02T09:16:28.941Z,60.00
2019-05-02T09:21:40.251Z,60.10
2019-05-02T09:26:55.922Z,60.30
2019-05-02T09:32:12.566Z,60.30
2019-05-02T09:37:28.549Z,60.30
2019-05-02T09:42:47.525Z,60.00
2019-05-02T09:48:07.134Z,59.90
2019-05-02T09:53:24.178Z,59.80
2019-05-02T09:58:37.050Z,59.70
2019-05-02T10:03:53.206Z,59.50
2019-05-02T10:09:12.120Z,59.40
2019-05-02T10:14:28.323Z,59.30
2019-05-02T10:19:49.146Z,59.30
2019-05-02T10:25:03.615Z,58.90
2019-05-02T10:30:22.419Z,58.80
2019-05-02T10:35:43.363Z,58.80
2019-05-02T10:41:01.841Z,58.60
2019-05-02T10:46:27.883Z,58.50
2019-05-02T10:51:49.163Z,58.30
2019-05-02T10:57:02.376Z,58.30
2019-05-02T11:02:32.763Z,58.30
2019-05-02T11:07:48.343Z,58.20
2019-05-02T11:13:09.684Z,58.30
2019-05-02T11:18:40.374Z,58.30
2019-05-02T11:23:46.094Z,58.40
2019-05-02T11:29:03.066Z,58.40
2019-05-02T11:34:19.373Z,58.30
2019-05-02T11:39:43.738Z,58.10
2019-05-02T11:44:52.608Z,57.80
2019-05-02T11:50:08.502Z,57.90
2019-05-02T11:55:28.900Z,57.90
2019-05-02T12:00:45.449Z,58.10
2019-05-02T12:05:58.566Z,58.00
2019-05-02T12:11:17.719Z,57.80
2019-05-02T12:16:32.444Z,57.80
2019-05-02T12:21:57.200Z,57.70
2019-05-02T12:27:12.774Z,57.60
2019-05-02T12:32:28.615Z,57.50
2019-05-02T12:37:46.990Z,57.40
2019-05-02T12:43:02.503Z,57.40
2019-05-02T12:48:18.352Z,57.50
2019-05-02T12:53:33.922Z,57.60
2019-05-02T12:58:50.141Z,57.50
2019-05-02T13:04:12.474Z,57.30
2019-05-02T13:09:28.710Z,57.20
2019-05-02T13:14:45.118Z,56.90
2019-05-02T13:20:04.914Z,56.60
2019-05-02T13:25:27.232Z,56.40
2019-05-02T13:30:59.707Z,56.20
2019-05-02T13:36:47.099Z,56.10
2019-05-02T13:42:05.293Z,56.10
2019-05-02T13:47:25.395Z,56.10
2019-05-02T13:52:45.234Z,55.90
2019-05-02T13:58:02.359Z,55.80
2019-05-02T14:03:19.305Z,55.70
2019-05-02T14:08:43.026Z,55.40
2019-05-02T14:13:58.904Z,55.00
2019-05-02T14:19:14.641Z,54.90
2019-05-02T14:24:31.874Z,54.70
2019-05-02T14:29:47.777Z,54.70
2019-05-02T14:35:18.709Z,54.60
2019-05-02T14:40:35.911Z,54.60
2019-05-02T14:45:57.531Z,54.50
2019-05-02T14:51:11.854Z,54.30
2019-05-02T14:56:47.795Z,53.70
2019-05-02T15:02:07.719Z,53.70
2019-05-02T15:07:26.653Z,53.50
2019-05-02T15:12:42.297Z,53.40
2019-05-02T15:17:58.534Z,53.10
2019-05-02T15:23:19.551Z,52.70
2019-05-02T15:28:37.385Z,52.20
2019-05-02T15:34:17.908Z,51.90
2019-05-02T15:44:52.208Z,52.00
2019-05-02T15:50:08.832Z,51.70
2019-05-02T15:55:24.766Z,51.60
2019-05-02T16:00:42.838Z,51.30
2019-05-02T16:05:58.682Z,51.20
2019-05-02T16:11:17.043Z,51.40
2019-05-02T16:16:36.621Z,51.20
2019-05-02T16:21:59.553Z,51.50
2019-05-02T16:27:16.461Z,52.50
2019-05-02T16:32:42.127Z,52.80
2019-05-02T16:37:59.694Z,53.40
2019-05-02T16:43:15.711Z,53.70
2019-05-02T16:48:37.419Z,54.20
2019-05-02T16:53:49.130Z,54.40
2019-05-02T16:59:05.503Z,54.50
2019-05-02T17:04:22.334Z,54.90
2019-05-02T17:10:14.610Z,55.00
2019-05-02T17:15:31.465Z,55.30
2019-05-02T17:20:52.034Z,55.30
2019-05-02T17:26:04.189Z,55.60
2019-05-02T17:31:23.084Z,55.70
2019-05-02T17:36:40.062Z,55.90
2019-05-02T17:41:55.799Z,56.20
2019-05-02T17:47:11.886Z,56.60
2019-05-02T17:52:42.750Z,56.40
2019-05-02T17:57:58.970Z,56.30
2019-05-02T18:03:15.511Z,56.30
2019-05-02T18:08:32.307Z,56.30
2019-05-02T18:14:22.099Z,56.50
2019-05-02T18:19:42.538Z,56.60
2019-05-02T18:24:58.530Z,56.70
2019-05-02T18:30:24.956Z,56.80
2019-05-02T18:35:45.123Z,56.80
2019-05-02T18:41:00.528Z,57.00
2019-05-02T18:46:19.992Z,57.00
2019-05-02T18:51:36.744Z,56.60
2019-05-02T18:56:55.351Z,57.20
2019-05-02T19:02:10.120Z,57.40
2019-05-02T19:07:33.152Z,57.50
2019-05-02T19:12:43.694Z,57.70
2019-05-02T19:18:10.696Z,57.70
2019-05-02T19:23:26.908Z,57.80
2019-05-02T19:29:15.696Z,57.90
2019-05-02T19:34:28.781Z,58.00
2019-05-02T19:39:48.793Z,58.20
2019-05-02T19:45:16.884Z,58.40
2019-05-02T19:50:43.950Z,58.50
2019-05-02T19:56:01.301Z,58.60
2019-05-02T20:01:17.518Z,59.40
2019-05-02T20:06:34.976Z,58.80
2019-05-02T20:11:52.070Z,59.00
2019-05-02T20:17:09.379Z,59.10
2019-05-02T20:22:25.349Z,59.20
2019-05-02T20:27:42.184Z,59.30
2019-05-02T20:32:58.538Z,59.30
2019-05-02T20:38:14.625Z,59.50
2019-05-02T20:43:32.223Z,59.60
2019-05-02T20:48:47.989Z,59.60
2019-05-02T20:54:04.983Z,59.70
2019-05-02T20:59:23.826Z,59.80
2019-05-02T21:04:39.933Z,59.70
2019-05-02T21:10:18.978Z,59.80
2019-05-02T21:15:39.202Z,59.90
2019-05-02T21:20:55.454Z,59.90
2019-05-02T21:26:11.495Z,59.90
2019-05-02T21:31:28.790Z,59.90
2019-05-02T21:36:45.441Z,60.60
2019-05-02T21:42:02.537Z,59.90
2019-05-02T21:47:18.614Z,60.00
2019-05-02T21:53:02.193Z,60.00
2019-05-02T21:58:18.048Z,60.20
2019-05-02T22:03:33.834Z,60.30
2019-05-02T22:08:49.716Z,60.60
2019-05-02T22:14:06.072Z,60.70
2019-05-02T22:19:22.096Z,60.90
2019-05-02T22:24:38.217Z,61.10
2019-05-02T22:29:54.715Z,61.40
2019-05-02T22:35:12.238Z,61.70
2019-05-02T22:40:28.354Z,61.80
2019-05-02T22:45:44.710Z,62.20
2019-05-02T22:51:00.647Z,63.10
2019-05-02T22:56:16.542Z,62.60
2019-05-02T23:01:32.456Z,62.80
2019-05-02T23:06:48.288Z,63.10
2019-05-02T23:12:04.769Z,63.40
2019-05-02T23:17:23.132Z,63.60
2019-05-02T23:22:39.138Z,63.90
2019-05-02T23:27:59.213Z,64.80
2019-05-02T23:33:15.044Z,64.30
2019-05-02T23:38:32.406Z,64.40
2019-05-02T23:43:48.065Z,64.70
2019-05-02T23:49:04.226Z,64.80
2019-05-02T23:54:22.024Z,64.90
2019-05-02T23:59:38.314Z,65.20
